Time;durP1;ratioP1;P1;durP2;ratioP2;P2;SDS_P1;SDS_P2;PMS_P1;PMS_P2;Temp;Humidity;BMP_temperature;BMP_pressure;BME280_temperature;BME280_humidity;BME280_pressure;Samples;Min_cycle;Max_cycle;Signal;HPM_P1;HPM_P2
2021/05/24 00:01:16;;;;;;;6.05;2.03;;;;;;;;;;5115895;28;20028;-65
2021/05/24 00:03:42;;;;;;;5.25;2.00;;;;;;;;;;5115988;28;20479;-66
2021/05/24 00:06:07;;;;;;;9.05;2.63;;;;;;;;;;5115481;28;20384;-66
2021/05/24 00:08:32;;;;;;;9.40;2.47;;;;;;;;;;5115930;28;20027;-65
2021/05/24 00:10:58;;;;;;;6.03;1.98;;;;;;;;;;5115937;28;20172;-66
2021/05/24 00:13:23;;;;;;;14.15;2.75;;;;;;;;;;5116268;28;20477;-63
2021/05/24 00:15:51;;;;;;;9.77;2.22;;;;;;;;;;5115601;28;20035;-63
2021/05/24 00:18:16;;;;;;;10.60;2.60;;;;;;;;;;5115751;28;20028;-63
2021/05/24 00:20:43;;;;;;;13.40;2.60;;;;;;;;;;5115838;28;20023;-63
2021/05/24 00:23:09;;;;;;;10.13;2.70;;;;;;;;;;5115693;28;20043;-63
2021/05/24 00:25:34;;;;;;;9.77;3.55;;;;;;;;;;5115607;28;20112;-63
2021/05/24 00:28:00;;;;;;;9.73;2.90;;;;;;;;;;5115349;28;20079;-63
2021/05/24 00:30:31;;;;;;;18.55;3.35;;;;;;;;;;5098301;28;20024;-65
2021/05/24 00:32:57;;;;;;;10.50;3.47;;;;;;;;;;5094706;28;20392;-65
2021/05/24 00:35:22;;;;;;;9.63;3.17;;;;;;;;;;5095068;28;20020;-66
2021/05/24 00:37:47;;;;;;;8.15;3.03;;;;;;;;;;5094612;28;20032;-66
2021/05/24 00:40:13;;;;;;;10.95;3.30;;;;;;;;;;5095000;28;20043;-66
2021/05/24 00:42:38;;;;;;;11.38;3.08;;;;;;;;;;5094884;28;20016;-66
2021/05/24 00:45:04;;;;;;;21.13;4.45;;;;;;;;;;5076777;28;20039;-66
2021/05/24 00:47:29;;;;;;;8.82;3.50;;;;;;;;;;5094884;28;20169;-65
2021/05/24 00:49:55;;;;;;;23.10;4.40;;;;;;;;;;5094902;28;20494;-66
2021/05/24 00:52:20;;;;;;;14.77;4.13;;;;;;;;;;5094673;28;20059;-65
2021/05/24 00:54:45;;;;;;;15.02;5.13;;;;;;;;;;5094758;28;20036;-65
2021/05/24 00:57:11;;;;;;;16.75;5.28;;;;;;;;;;5094596;28;20460;-63
2021/05/24 00:59:36;;;;;;;16.25;4.90;;;;;;;;;;5094632;28;20441;-65
2021/05/24 01:02:02;;;;;;;15.35;4.90;;;;;;;;;;5094374;28;20032;-65
2021/05/24 01:04:28;;;;;;;13.90;4.00;;;;;;;;;;5094236;28;20465;-66
2021/05/24 01:06:54;;;;;;;14.73;5.82;;;;;;;;;;5094409;28;20020;-65
2021/05/24 01:09:19;;;;;;;13.18;4.57;;;;;;;;;;5094392;28;20112;-65
2021/05/24 01:11:47;;;;;;;15.68;4.57;;;;;;;;;;5094407;28;20008;-65
2021/05/24 01:14:12;;;;;;;7.68;4.22;;;;;;;;;;5094374;28;20054;-65
2021/05/24 01:16:39;;;;;;;14.15;5.45;;;;;;;;;;5093995;28;20449;-65
2021/05/24 01:19:04;;;;;;;14.93;4.95;;;;;;;;;;5094282;28;20471;-65
2021/05/24 01:21:29;;;;;;;14.55;4.65;;;;;;;;;;5093965;28;20112;-65
2021/05/24 01:23:55;;;;;;;14.50;6.03;;;;;;;;;;5094084;28;20034;-65
2021/05/24 01:26:21;;;;;;;15.13;5.32;;;;;;;;;;5094010;28;20150;-65
2021/05/24 01:28:46;;;;;;;18.70;5.75;;;;;;;;;;5096717;28;20032;-65
2021/05/24 01:31:12;;;;;;;18.27;5.03;;;;;;;;;;5114294;28;20039;-65
2021/05/24 01:33:37;;;;;;;14.57;5.63;;;;;;;;;;5114434;28;20020;-65
2021/05/24 01:36:04;;;;;;;19.67;5.55;;;;;;;;;;5114234;28;20050;-65
2021/05/24 01:38:30;;;;;;;20.15;5.78;;;;;;;;;;5114089;28;20472;-65
2021/05/24 01:40:56;;;;;;;16.80;5.80;;;;;;;;;;5114126;28;20057;-65
2021/05/24 01:43:21;;;;;;;21.73;5.50;;;;;;;;;;5112536;28;20024;-65
2021/05/24 01:45:46;;;;;;;20.90;5.95;;;;;;;;;;5114097;28;20039;-63
2021/05/24 01:48:12;;;;;;;14.40;5.35;;;;;;;;;;5113993;28;20016;-63
2021/05/24 01:50:38;;;;;;;24.23;5.55;;;;;;;;;;5114192;28;20035;-63
2021/05/24 01:53:03;;;;;;;17.88;6.00;;;;;;;;;;5113910;28;20035;-63
2021/05/24 01:55:28;;;;;;;18.67;5.47;;;;;;;;;;5113982;28;20031;-63
2021/05/24 01:57:54;;;;;;;14.73;5.22;;;;;;;;;;5113773;28;20037;-63
2021/05/24 02:00:23;;;;;;;16.63;5.40;;;;;;;;;;5113659;28;20058;-63
2021/05/24 02:02:50;;;;;;;18.73;4.95;;;;;;;;;;5113543;28;20503;-64
2021/05/24 02:05:16;;;;;;;12.95;5.15;;;;;;;;;;5113514;28;20471;-63
2021/05/24 02:07:41;;;;;;;22.05;5.22;;;;;;;;;;5113744;28;20031;-63
2021/05/24 02:10:08;;;;;;;11.95;5.25;;;;;;;;;;5113589;28;20075;-63
2021/05/24 02:12:33;;;;;;;22.65;5.10;;;;;;;;;;5113683;28;20028;-63
2021/05/24 02:14:59;;;;;;;14.50;5.57;;;;;;;;;;5113499;28;20387;-63
2021/05/24 02:17:24;;;;;;;25.85;5.30;;;;;;;;;;5113615;28;20007;-63
2021/05/24 02:19:49;;;;;;;20.83;6.03;;;;;;;;;;5113719;28;20023;-63
2021/05/24 02:22:15;;;;;;;23.00;5.47;;;;;;;;;;5095299;28;20047;-63
2021/05/24 02:24:41;;;;;;;30.00;6.13;;;;;;;;;;5113577;28;20026;-63
2021/05/24 02:27:06;;;;;;;17.75;6.05;;;;;;;;;;5113572;28;20028;-63
2021/05/24 02:29:31;;;;;;;28.50;6.20;;;;;;;;;;5113236;28;20472;-63
2021/05/24 02:31:57;;;;;;;29.50;5.65;;;;;;;;;;5113113;28;20030;-63
2021/05/24 02:34:22;;;;;;;26.25;5.75;;;;;;;;;;5113689;28;20043;-63
2021/05/24 02:36:48;;;;;;;20.95;5.50;;;;;;;;;;5113375;28;20032;-63
2021/05/24 02:39:13;;;;;;;17.55;5.60;;;;;;;;;;5113568;28;20020;-63
2021/05/24 02:41:38;;;;;;;23.90;5.28;;;;;;;;;;5113383;28;20035;-65
2021/05/24 02:44:06;;;;;;;20.85;6.63;;;;;;;;;;5113460;28;20514;-63
2021/05/24 02:46:32;;;;;;;25.08;6.07;;;;;;;;;;5113317;28;20490;-63
2021/05/24 02:48:58;;;;;;;33.90;7.85;;;;;;;;;;5113102;28;20031;-64
2021/05/24 02:51:23;;;;;;;22.00;6.53;;;;;;;;;;5113339;28;20032;-63
2021/05/24 02:53:49;;;;;;;21.38;5.72;;;;;;;;;;5115356;28;20467;-65
2021/05/24 02:56:14;;;;;;;22.52;5.78;;;;;;;;;;5117329;28;20472;-65
2021/05/24 02:58:39;;;;;;;18.50;6.18;;;;;;;;;;5117414;28;20391;-63
2021/05/24 03:01:05;;;;;;;17.45;5.20;;;;;;;;;;5117502;28;20493;-63
2021/05/24 03:03:33;;;;;;;25.35;6.38;;;;;;;;;;5117173;28;20031;-64
2021/05/24 03:05:59;;;;;;;16.67;5.10;;;;;;;;;;5117132;28;20079;-63
2021/05/24 03:08:25;;;;;;;17.83;5.75;;;;;;;;;;5117146;28;20016;-63
2021/05/24 03:10:50;;;;;;;20.65;5.80;;;;;;;;;;5116811;28;20117;-64
2021/05/24 03:13:15;;;;;;;26.23;6.18;;;;;;;;;;5117019;28;20031;-63
2021/05/24 03:15:41;;;;;;;25.48;6.43;;;;;;;;;;5117162;28;20464;-63
2021/05/24 03:18:06;;;;;;;18.58;5.70;;;;;;;;;;5116973;28;20055;-64
2021/05/24 03:20:31;;;;;;;22.63;5.00;;;;;;;;;;5117312;28;20043;-63
2021/05/24 03:22:57;;;;;;;16.67;5.57;;;;;;;;;;5116893;28;20019;-64
2021/05/24 03:25:22;;;;;;;19.85;6.13;;;;;;;;;;5116888;28;20044;-64
2021/05/24 03:27:48;;;;;;;21.48;5.63;;;;;;;;;;5116753;28;20031;-64
2021/05/24 03:30:13;;;;;;;21.65;5.53;;;;;;;;;;5101909;28;20031;-63
2021/05/24 03:32:39;;;;;;;24.55;5.80;;;;;;;;;;5096237;28;20031;-63
2021/05/24 03:35:05;;;;;;;20.00;6.00;;;;;;;;;;5096309;28;20063;-64
2021/05/24 03:37:30;;;;;;;21.77;6.10;;;;;;;;;;5096213;28;20027;-63
2021/05/24 03:39:56;;;;;;;25.63;6.03;;;;;;;;;;5095932;28;20039;-63
2021/05/24 03:42:21;;;;;;;22.52;5.80;;;;;;;;;;5095713;28;20036;-64
2021/05/24 03:44:46;;;;;;;30.15;6.57;;;;;;;;;;5096070;28;20111;-63
2021/05/24 03:47:12;;;;;;;28.27;7.13;;;;;;;;;;5095995;28;20031;-63
2021/05/24 03:49:38;;;;;;;20.45;6.60;;;;;;;;;;5095814;28;20476;-63
2021/05/24 03:52:03;;;;;;;32.45;7.25;;;;;;;;;;5095906;28;20066;-64
2021/05/24 03:54:29;;;;;;;20.27;6.28;;;;;;;;;;5095726;28;20043;-63
2021/05/24 03:56:54;;;;;;;35.55;7.07;;;;;;;;;;5095744;28;20036;-64
2021/05/24 03:59:19;;;;;;;27.92;9.27;;;;;;;;;;5095917;28;20016;-63
2021/05/24 04:01:45;;;;;;;26.10;8.10;;;;;;;;;;5096052;28;20024;-63
2021/05/24 04:04:10;;;;;;;28.92;8.63;;;;;;;;;;5095427;28;20514;-63
2021/05/24 04:06:37;;;;;;;39.35;9.02;;;;;;;;;;5095005;28;20376;-63
2021/05/24 04:09:04;;;;;;;28.90;6.80;;;;;;;;;;5095330;28;20024;-63
2021/05/24 04:11:29;;;;;;;27.38;8.02;;;;;;;;;;5095990;28;20115;-63
2021/05/24 04:13:55;;;;;;;30.92;7.45;;;;;;;;;;5095462;28;20044;-63
2021/05/24 04:16:21;;;;;;;26.73;6.30;;;;;;;;;;5095488;28;20040;-63
2021/05/24 04:18:48;;;;;;;21.67;6.28;;;;;;;;;;5095630;28;20042;-63
2021/05/24 04:21:14;;;;;;;16.85;5.90;;;;;;;;;;5095487;28;20032;-63
2021/05/24 04:23:40;;;;;;;27.52;6.35;;;;;;;;;;5095394;28;20036;-64
2021/05/24 04:26:05;;;;;;;31.20;6.75;;;;;;;;;;5095269;28;20072;-64
2021/05/24 04:28:31;;;;;;;28.65;6.13;;;;;;;;;;5095029;28;20012;-63
2021/05/24 04:30:56;;;;;;;25.48;6.20;;;;;;;;;;5115560;28;20110;-63
2021/05/24 04:33:21;;;;;;;32.65;6.38;;;;;;;;;;5115258;28;20035;-63
2021/05/24 04:35:46;;;;;;;28.48;6.32;;;;;;;;;;5115491;28;20022;-63
2021/05/24 04:38:12;;;;;;;26.65;5.70;;;;;;;;;;5115512;28;20406;-64
2021/05/24 04:40:37;;;;;;;28.38;5.35;;;;;;;;;;5115473;28;20043;-63
2021/05/24 04:43:02;;;;;;;38.15;6.10;;;;;;;;;;5115310;28;20023;-63
2021/05/24 04:45:28;;;;;;;23.77;5.50;;;;;;;;;;5115252;28;20548;-63
2021/05/24 04:47:53;;;;;;;36.78;6.70;;;;;;;;;;5115226;28;20043;-63
2021/05/24 04:50:18;;;;;;;20.63;5.15;;;;;;;;;;5115247;28;20452;-63
2021/05/24 04:52:44;;;;;;;22.55;5.25;;;;;;;;;;5115107;28;20024;-63
2021/05/24 04:55:10;;;;;;;28.05;4.70;;;;;;;;;;5114884;28;20027;-64
2021/05/24 04:57:35;;;;;;;26.70;4.93;;;;;;;;;;5114981;28;20092;-63
2021/05/24 05:00:01;;;;;;;21.90;5.53;;;;;;;;;;5115025;28;20078;-64
2021/05/24 05:02:28;;;;;;;26.25;6.00;;;;;;;;;;5114938;28;20024;-64
2021/05/24 05:04:54;;;;;;;19.77;4.22;;;;;;;;;;5114896;28;20027;-64
2021/05/24 05:07:19;;;;;;;15.32;4.28;;;;;;;;;;5114903;28;20379;-63
2021/05/24 05:09:45;;;;;;;22.92;4.93;;;;;;;;;;5114400;28;20047;-64
2021/05/24 05:12:10;;;;;;;16.17;5.38;;;;;;;;;;5114812;28;20376;-64
2021/05/24 05:14:35;;;;;;;15.63;3.97;;;;;;;;;;5114599;28;20032;-63
2021/05/24 05:17:01;;;;;;;26.88;5.00;;;;;;;;;;5114794;28;20036;-63
2021/05/24 05:19:26;;;;;;;25.00;4.60;;;;;;;;;;5114571;28;20019;-63
2021/05/24 05:21:51;;;;;;;23.33;4.50;;;;;;;;;;5114589;28;20028;-63
2021/05/24 05:24:17;;;;;;;16.23;3.72;;;;;;;;;;5114593;28;20421;-64
2021/05/24 05:26:42;;;;;;;24.48;5.30;;;;;;;;;;5114823;28;20508;-64
2021/05/24 05:29:08;;;;;;;14.73;4.22;;;;;;;;;;5113975;28;20027;-64
2021/05/24 05:31:33;;;;;;;21.05;4.28;;;;;;;;;;5114491;28;20070;-64
2021/05/24 05:33:58;;;;;;;26.98;4.03;;;;;;;;;;5114259;28;20444;-63
2021/05/24 05:36:25;;;;;;;19.25;4.22;;;;;;;;;;5114420;28;20050;-64
2021/05/24 05:38:51;;;;;;;22.23;3.90;;;;;;;;;;5114214;28;20383;-63
2021/05/24 05:41:16;;;;;;;19.45;3.38;;;;;;;;;;5114367;28;20099;-64
2021/05/24 05:43:42;;;;;;;21.50;3.85;;;;;;;;;;5113785;28;20034;-63
2021/05/24 05:46:07;;;;;;;20.63;3.80;;;;;;;;;;5114194;28;20126;-63
2021/05/24 05:48:32;;;;;;;14.68;4.22;;;;;;;;;;5113728;28;20023;-64
2021/05/24 05:50:58;;;;;;;16.30;4.07;;;;;;;;;;5114162;28;20106;-64
2021/05/24 05:53:23;;;;;;;17.40;3.63;;;;;;;;;;5113951;28;20039;-64
2021/05/24 05:55:48;;;;;;;18.10;2.50;;;;;;;;;;5114057;28;20027;-64
2021/05/24 05:58:14;;;;;;;19.52;2.63;;;;;;;;;;5113692;28;20124;-64
2021/05/24 06:00:39;;;;;;;22.65;2.92;;;;;;;;;;5113984;28;20027;-64
2021/05/24 06:03:05;;;;;;;13.80;2.97;;;;;;;;;;5113941;28;20478;-64
2021/05/24 06:05:30;;;;;;;16.45;3.33;;;;;;;;;;5113841;28;20093;-64
2021/05/24 06:07:55;;;;;;;12.45;3.38;;;;;;;;;;5113740;28;20100;-64
2021/05/24 06:10:21;;;;;;;24.55;3.72;;;;;;;;;;5113521;28;20048;-64
2021/05/24 06:12:47;;;;;;;12.30;2.78;;;;;;;;;;5113768;28;20023;-64
2021/05/24 06:15:16;;;;;;;14.00;2.97;;;;;;;;;;5113729;28;20024;-64
2021/05/24 06:17:41;;;;;;;18.73;3.60;;;;;;;;;;5113689;28;20019;-64
2021/05/24 06:20:06;;;;;;;15.07;2.70;;;;;;;;;;5113730;28;20420;-64
2021/05/24 06:22:32;;;;;;;16.10;3.33;;;;;;;;;;5113635;28;20036;-65
2021/05/24 06:24:57;;;;;;;11.60;3.47;;;;;;;;;;5113291;28;20027;-64
2021/05/24 06:27:22;;;;;;;12.65;2.47;;;;;;;;;;5113301;28;20063;-64
2021/05/24 06:29:48;;;;;;;16.85;3.85;;;;;;;;;;5102420;28;20043;-64
2021/05/24 06:32:13;;;;;;;13.15;3.42;;;;;;;;;;5093106;28;20047;-64
2021/05/24 06:34:38;;;;;;;11.52;3.00;;;;;;;;;;5093251;28;20036;-64
2021/05/24 06:37:04;;;;;;;13.80;3.35;;;;;;;;;;5092908;28;20066;-64
2021/05/24 06:39:30;;;;;;;22.45;4.18;;;;;;;;;;5092997;28;20020;-65
2021/05/24 06:41:55;;;;;;;12.18;2.80;;;;;;;;;;5101721;28;20136;-65
2021/05/24 06:44:20;;;;;;;11.93;2.90;;;;;;;;;;5113299;28;20032;-64
2021/05/24 06:46:47;;;;;;;13.98;3.35;;;;;;;;;;5113676;28;20019;-64
2021/05/24 06:49:13;;;;;;;21.30;2.55;;;;;;;;;;5113371;28;20056;-64
2021/05/24 06:51:38;;;;;;;17.30;3.35;;;;;;;;;;5113168;28;20074;-64
2021/05/24 06:54:03;;;;;;;14.15;2.10;;;;;;;;;;5113202;28;20020;-64
2021/05/24 06:56:29;;;;;;;15.82;3.10;;;;;;;;;;5113374;28;20070;-64
2021/05/24 06:58:54;;;;;;;19.60;3.42;;;;;;;;;;5113014;28;20028;-64
2021/05/24 07:01:19;;;;;;;14.65;2.78;;;;;;;;;;5113300;28;20153;-65
2021/05/24 07:03:44;;;;;;;13.73;2.70;;;;;;;;;;5112917;28;20491;-64
2021/05/24 07:06:10;;;;;;;16.75;3.38;;;;;;;;;;5113158;28;20047;-64
2021/05/24 07:08:37;;;;;;;15.38;2.53;;;;;;;;;;5113166;28;20024;-64
2021/05/24 07:11:02;;;;;;;20.90;4.05;;;;;;;;;;5113132;28;20047;-64
2021/05/24 07:13:27;;;;;;;14.77;2.60;;;;;;;;;;5113195;28;20521;-64
2021/05/24 07:15:53;;;;;;;16.13;2.58;;;;;;;;;;5113129;28;20468;-63
2021/05/24 07:18:19;;;;;;;18.92;3.00;;;;;;;;;;5113056;28;20108;-63
2021/05/24 07:20:44;;;;;;;13.23;2.53;;;;;;;;;;5113121;28;20114;-64
2021/05/24 07:23:10;;;;;;;13.88;2.53;;;;;;;;;;5113055;28;20416;-64
2021/05/24 07:25:35;;;;;;;20.55;3.33;;;;;;;;;;5113083;28;20100;-64
2021/05/24 07:28:00;;;;;;;10.77;2.47;;;;;;;;;;5112929;28;20035;-64
2021/05/24 07:30:26;;;;;;;8.25;2.35;;;;;;;;;;5096399;28;20026;-64
2021/05/24 07:32:51;;;;;;;19.10;2.90;;;;;;;;;;5092544;28;20028;-64
2021/05/24 07:35:16;;;;;;;18.52;2.50;;;;;;;;;;5092585;28;20052;-64
2021/05/24 07:37:42;;;;;;;11.70;2.67;;;;;;;;;;5092545;28;20024;-63
2021/05/24 07:40:08;;;;;;;13.60;2.17;;;;;;;;;;5093132;28;20472;-63
2021/05/24 07:42:34;;;;;;;12.35;2.13;;;;;;;;;;5105136;28;20035;-64
2021/05/24 07:44:59;;;;;;;10.43;1.70;;;;;;;;;;5116413;28;20023;-63
2021/05/24 07:47:25;;;;;;;10.90;1.90;;;;;;;;;;5116455;28;20028;-63
2021/05/24 07:49:50;;;;;;;11.50;1.88;;;;;;;;;;5116184;28;20027;-63
2021/05/24 07:52:15;;;;;;;6.90;1.58;;;;;;;;;;5116384;28;20024;-64
2021/05/24 07:54:41;;;;;;;12.63;1.65;;;;;;;;;;5116300;28;20045;-64
2021/05/24 07:57:06;;;;;;;7.90;1.52;;;;;;;;;;5116058;28;20031;-64
2021/05/24 07:59:31;;;;;;;8.52;1.38;;;;;;;;;;5116195;28;20028;-63
2021/05/24 08:01:59;;;;;;;14.77;1.70;;;;;;;;;;5116068;28;20038;-63
2021/05/24 08:04:25;;;;;;;7.00;1.35;;;;;;;;;;5116080;28;20027;-63
2021/05/24 08:06:50;;;;;;;11.48;1.33;;;;;;;;;;5116169;28;20038;-64
2021/05/24 08:09:16;;;;;;;7.55;1.40;;;;;;;;;;5115653;28;20686;-64
2021/05/24 08:11:41;;;;;;;4.78;1.10;;;;;;;;;;5115800;28;20122;-64
2021/05/24 08:14:07;;;;;;;9.15;1.70;;;;;;;;;;5115624;28;20027;-63
2021/05/24 08:16:32;;;;;;;5.15;1.17;;;;;;;;;;5115207;28;20028;-64
2021/05/24 08:18:57;;;;;;;5.80;1.25;;;;;;;;;;5115761;28;20125;-64
2021/05/24 08:21:23;;;;;;;3.42;1.00;;;;;;;;;;5115835;28;20117;-63
2021/05/24 08:23:48;;;;;;;5.07;1.40;;;;;;;;;;5115654;28;20035;-64
2021/05/24 08:26:13;;;;;;;6.72;1.27;;;;;;;;;;5110569;28;20040;-65
2021/05/24 08:28:39;;;;;;;6.53;1.10;;;;;;;;;;5095567;28;20362;-66
2021/05/24 08:31:05;;;;;;;7.88;1.48;;;;;;;;;;5097456;28;20039;-65
2021/05/24 08:33:31;;;;;;;5.78;1.33;;;;;;;;;;5110817;28;20427;-66
2021/05/24 08:35:56;;;;;;;5.95;1.40;;;;;;;;;;5110172;28;20107;-65
2021/05/24 08:38:22;;;;;;;4.15;1.00;;;;;;;;;;5099886;28;20023;-66
2021/05/24 08:40:48;;;;;;;4.88;1.25;;;;;;;;;;5106488;28;20031;-66
2021/05/24 08:43:14;;;;;;;3.20;1.38;;;;;;;;;;5108163;28;20081;-66
2021/05/24 08:45:40;;;;;;;7.93;1.77;;;;;;;;;;5092703;28;20114;-66
2021/05/24 08:48:06;;;;;;;6.05;2.15;;;;;;;;;;5088306;28;20039;-66
2021/05/24 08:50:31;;;;;;;4.85;1.40;;;;;;;;;;5087730;28;20039;-67
2021/05/24 08:52:57;;;;;;;5.25;1.30;;;;;;;;;;5087545;28;20044;-65
2021/05/24 08:55:22;;;;;;;4.88;1.40;;;;;;;;;;5088704;28;20032;-65
2021/05/24 08:57:48;;;;;;;6.47;1.08;;;;;;;;;;5071295;28;20835;-65
2021/05/24 09:00:14;;;;;;;3.47;1.05;;;;;;;;;;5089940;28;20028;-65
2021/05/24 09:02:53;;;;;;;4.75;0.90;;;;;;;;;;5089259;28;20024;-64
2021/05/24 09:05:19;;;;;;;3.35;1.13;;;;;;;;;;5089838;28;20075;-64
2021/05/24 09:07:47;;;;;;;4.22;1.45;;;;;;;;;;5089096;28;20067;-65
2021/05/24 09:10:13;;;;;;;4.63;1.20;;;;;;;;;;5089477;28;20385;-65
2021/05/24 09:12:38;;;;;;;2.95;0.80;;;;;;;;;;5080211;28;20024;-64
2021/05/24 09:15:07;;;;;;;2.85;1.02;;;;;;;;;;5084083;28;20070;-65
2021/05/24 09:17:40;;;;;;;2.80;0.90;;;;;;;;;;5083038;28;20047;-65
2021/05/24 09:20:13;;;;;;;6.03;1.10;;;;;;;;;;5086547;28;20391;-64
2021/05/24 09:22:38;;;;;;;4.50;1.00;;;;;;;;;;5085842;28;20036;-66
2021/05/24 09:25:04;;;;;;;3.40;0.75;;;;;;;;;;5085429;28;20040;-66
2021/05/24 09:27:39;;;;;;;7.00;1.63;;;;;;;;;;5089897;28;20024;-66
2021/05/24 09:30:05;;;;;;;3.60;1.52;;;;;;;;;;5106118;28;20032;-66
2021/05/24 09:32:32;;;;;;;5.22;1.63;;;;;;;;;;5087594;28;20032;-66
2021/05/24 09:35:02;;;;;;;3.83;1.30;;;;;;;;;;5100886;28;20034;-66
2021/05/24 09:37:29;;;;;;;4.10;1.20;;;;;;;;;;5092209;28;20070;-66
2021/05/24 09:39:55;;;;;;;3.83;0.85;;;;;;;;;;5101729;28;20476;-65
2021/05/24 09:42:20;;;;;;;4.22;0.98;;;;;;;;;;5086467;28;20059;-65
2021/05/24 09:44:50;;;;;;;6.15;0.90;;;;;;;;;;5101854;28;20168;-64
2021/05/24 09:47:31;;;;;;;5.20;1.10;;;;;;;;;;5089959;28;20119;-66
2021/05/24 09:50:05;;;;;;;3.20;0.73;;;;;;;;;;5094638;28;20464;-66
2021/05/24 09:52:36;;;;;;;4.40;1.00;;;;;;;;;;5102424;28;20398;-66
2021/05/24 09:55:14;;;;;;;3.05;1.08;;;;;;;;;;5103010;28;20076;-65
2021/05/24 09:57:53;;;;;;;4.30;1.08;;;;;;;;;;5101243;28;20027;-65
2021/05/24 10:00:22;;;;;;;8.30;1.67;;;;;;;;;;5089784;28;20019;-65
2021/05/24 10:02:48;;;;;;;5.78;1.63;;;;;;;;;;5098680;28;20028;-66
2021/05/24 10:05:13;;;;;;;4.43;1.20;;;;;;;;;;5098287;28;20049;-66
2021/05/24 10:07:39;;;;;;;7.47;1.58;;;;;;;;;;5106584;28;20023;-66
2021/05/24 10:10:04;;;;;;;7.80;1.70;;;;;;;;;;5108357;28;20114;-65
2021/05/24 10:12:30;;;;;;;5.80;0.88;;;;;;;;;;5089860;28;20036;-66
2021/05/24 10:14:58;;;;;;;4.80;1.00;;;;;;;;;;5089843;28;20471;-65
2021/05/24 10:17:24;;;;;;;7.00;1.67;;;;;;;;;;5081696;28;20040;-66
2021/05/24 10:19:49;;;;;;;9.45;1.85;;;;;;;;;;5104797;28;20382;-65
2021/05/24 10:22:15;;;;;;;2.50;0.75;;;;;;;;;;5095187;28;20011;-65
2021/05/24 10:24:40;;;;;;;5.50;1.05;;;;;;;;;;5102938;28;20111;-66
2021/05/24 10:27:05;;;;;;;4.25;1.35;;;;;;;;;;5090487;28;20372;-65
2021/05/24 10:29:31;;;;;;;5.45;0.70;;;;;;;;;;5096216;28;20074;-65
2021/05/24 10:31:56;;;;;;;2.05;0.70;;;;;;;;;;5087610;28;20036;-65
2021/05/24 10:34:23;;;;;;;1.98;0.70;;;;;;;;;;5093794;28;20104;-65
2021/05/24 10:37:05;;;;;;;4.75;1.02;;;;;;;;;;5103072;28;20115;-65
2021/05/24 10:39:42;;;;;;;6.80;1.23;;;;;;;;;;5094218;28;20056;-65
2021/05/24 10:42:10;;;;;;;3.15;0.70;;;;;;;;;;5092813;28;20162;-65
2021/05/24 10:44:44;;;;;;;4.45;1.17;;;;;;;;;;5101724;28;20050;-66
2021/05/24 10:47:30;;;;;;;4.75;0.88;;;;;;;;;;5090273;28;20235;-65
2021/05/24 10:50:17;;;;;;;2.65;0.70;;;;;;;;;;5103649;28;20047;-66
2021/05/24 10:52:53;;;;;;;4.60;0.82;;;;;;;;;;5088236;28;20085;-65
2021/05/24 10:55:27;;;;;;;3.75;0.57;;;;;;;;;;5104453;28;20039;-65
2021/05/24 10:57:59;;;;;;;1.93;0.73;;;;;;;;;;5106084;28;20027;-66
2021/05/24 11:00:25;;;;;;;2.08;0.63;;;;;;;;;;5103089;28;20112;-66
2021/05/24 11:02:51;;;;;;;3.60;1.25;;;;;;;;;;5105115;28;20469;-65
2021/05/24 11:05:25;;;;;;;5.78;0.80;;;;;;;;;;5099839;28;20472;-65
2021/05/24 11:07:51;;;;;;;3.15;0.80;;;;;;;;;;5096868;28;20070;-66
2021/05/24 11:10:19;;;;;;;8.93;1.55;;;;;;;;;;5091399;28;20063;-66
2021/05/24 11:12:51;;;;;;;1.92;0.43;;;;;;;;;;5088082;28;20107;-66
2021/05/24 11:15:29;;;;;;;2.80;0.70;;;;;;;;;;5110052;28;20028;-65
2021/05/24 11:17:57;;;;;;;6.10;0.98;;;;;;;;;;5097828;28;20487;-65
2021/05/24 11:20:27;;;;;;;4.80;0.70;;;;;;;;;;5106513;28;20433;-66
2021/05/24 11:23:14;;;;;;;3.75;1.20;;;;;;;;;;5093099;28;20134;-66
2021/05/24 11:28:33;;;;;;;2.70;0.80;;;;;;;;;;5104899;28;20049;-66
2021/05/24 11:31:11;;;;;;;2.92;1.05;;;;;;;;;;5106728;28;20032;-66
2021/05/24 11:33:49;;;;;;;4.95;1.13;;;;;;;;;;5098540;28;20035;-65
2021/05/24 11:36:15;;;;;;;5.50;0.90;;;;;;;;;;5094793;28;20047;-65
2021/05/24 11:38:59;;;;;;;5.45;1.00;;;;;;;;;;5087438;28;20036;-66
2021/05/24 11:41:29;;;;;;;6.63;1.52;;;;;;;;;;5096856;28;20035;-65
2021/05/24 11:43:54;;;;;;;3.05;0.70;;;;;;;;;;5097387;28;20391;-66
2021/05/24 11:46:19;;;;;;;1.48;0.80;;;;;;;;;;5086165;28;20035;-66
2021/05/24 11:48:45;;;;;;;2.63;0.80;;;;;;;;;;5091729;28;20031;-66
2021/05/24 11:51:13;;;;;;;4.93;1.30;;;;;;;;;;5104291;28;20040;-66
2021/05/24 11:53:57;;;;;;;1.02;0.57;;;;;;;;;;5098670;28;20088;-65
2021/05/24 11:56:22;;;;;;;1.88;0.70;;;;;;;;;;5093210;28;20031;-65
2021/05/24 11:58:58;;;;;;;3.85;0.40;;;;;;;;;;5105132;28;20037;-66
2021/05/24 12:01:23;;;;;;;1.65;0.70;;;;;;;;;;5102877;28;20118;-66
2021/05/24 12:03:49;;;;;;;4.10;0.85;;;;;;;;;;5108298;28;20130;-65
2021/05/24 12:06:14;;;;;;;1.92;0.50;;;;;;;;;;5094287;28;20036;-66
2021/05/24 12:08:49;;;;;;;2.17;0.60;;;;;;;;;;5089257;28;20024;-66
2021/05/24 12:11:15;;;;;;;3.30;0.70;;;;;;;;;;5054694;28;20135;-67
2021/05/24 12:13:56;;;;;;;2.58;0.68;;;;;;;;;;5067266;28;20123;-65
2021/05/24 12:16:22;;;;;;;2.05;0.57;;;;;;;;;;5053337;28;20418;-66
2021/05/24 12:18:51;;;;;;;3.08;1.10;;;;;;;;;;5063588;28;20155;-66
2021/05/24 12:21:35;;;;;;;2.35;0.85;;;;;;;;;;5054556;28;20033;-66
2021/05/24 12:24:04;;;;;;;4.10;0.90;;;;;;;;;;5067513;28;20065;-67
2021/05/24 12:26:30;;;;;;;5.13;0.90;;;;;;;;;;5050937;28;20086;-66
2021/05/24 12:28:56;;;;;;;5.60;2.05;;;;;;;;;;5061279;28;20024;-66
2021/05/24 12:31:22;;;;;;;4.00;0.77;;;;;;;;;;5068109;28;20040;-66
2021/05/24 12:33:48;;;;;;;2.53;0.70;;;;;;;;;;5055962;28;20039;-66
2021/05/24 12:36:17;;;;;;;4.65;0.90;;;;;;;;;;5061561;28;20111;-66
2021/05/24 12:38:51;;;;;;;3.67;0.77;;;;;;;;;;5065609;28;20107;-66
2021/05/24 12:41:19;;;;;;;2.25;0.70;;;;;;;;;;5054097;28;20115;-66
2021/05/24 12:43:55;;;;;;;4.00;1.00;;;;;;;;;;5057031;28;20099;-66
2021/05/24 12:46:21;;;;;;;5.03;1.10;;;;;;;;;;5063070;28;20140;-65
2021/05/24 12:48:51;;;;;;;4.40;1.10;;;;;;;;;;5050779;28;20033;-66
2021/05/24 12:51:21;;;;;;;7.97;1.05;;;;;;;;;;5067358;28;20542;-66
2021/05/24 12:53:54;;;;;;;4.05;0.70;;;;;;;;;;5065547;28;20441;-65
2021/05/24 12:56:20;;;;;;;4.90;0.70;;;;;;;;;;5067423;28;20036;-66
2021/05/24 12:58:45;;;;;;;9.07;0.65;;;;;;;;;;5050560;28;20096;-65
2021/05/24 13:01:11;;;;;;;3.83;0.77;;;;;;;;;;5062066;28;20025;-64
2021/05/24 13:03:43;;;;;;;2.53;0.80;;;;;;;;;;5057001;28;20041;-66
2021/05/24 13:06:09;;;;;;;6.43;1.10;;;;;;;;;;5066801;28;20086;-65
2021/05/24 13:08:34;;;;;;;2.05;0.85;;;;;;;;;;5066561;28;20039;-65
2021/05/24 13:11:04;;;;;;;3.60;1.00;;;;;;;;;;5084247;28;20048;-65
2021/05/24 13:13:29;;;;;;;4.05;0.70;;;;;;;;;;5095976;28;20031;-65
2021/05/24 13:16:02;;;;;;;2.35;0.90;;;;;;;;;;5107103;28;20032;-65
2021/05/24 13:21:58;;;;;;;4.93;1.02;;;;;;;;;;5109199;28;20023;-65
2021/05/24 13:31:27;;;;;;;3.03;1.10;;;;;;;;;;5111568;28;20108;-65
2021/05/24 13:33:55;;;;;;;4.38;1.25;;;;;;;;;;5111035;28;20027;-65
2021/05/24 13:36:22;;;;;;;4.75;1.65;;;;;;;;;;5109362;28;20028;-66
2021/05/24 13:39:00;;;;;;;3.75;1.20;;;;;;;;;;5109147;28;20485;-65
2021/05/24 13:41:26;;;;;;;4.60;1.52;;;;;;;;;;5110428;28;20510;-65
2021/05/24 13:43:51;;;;;;;7.18;1.15;;;;;;;;;;5111267;28;20032;-65
2021/05/24 13:46:16;;;;;;;6.47;1.00;;;;;;;;;;5111022;28;20120;-65
2021/05/24 13:48:42;;;;;;;3.97;0.98;;;;;;;;;;5110355;28;20446;-66
2021/05/24 13:51:07;;;;;;;1.65;1.00;;;;;;;;;;5111454;28;20035;-66
2021/05/24 13:53:32;;;;;;;2.15;1.05;;;;;;;;;;5110772;28;20047;-65
2021/05/24 13:55:58;;;;;;;2.15;0.95;;;;;;;;;;5110547;28;20071;-65
2021/05/24 13:58:23;;;;;;;3.00;0.80;;;;;;;;;;5109626;28;20062;-66
2021/05/24 14:00:48;;;;;;;4.40;1.42;;;;;;;;;;5110542;28;20019;-66
2021/05/24 14:03:13;;;;;;;4.82;1.25;;;;;;;;;;5099271;28;20395;-66
2021/05/24 14:05:39;;;;;;;3.65;0.80;;;;;;;;;;5103297;28;20048;-66
2021/05/24 14:08:06;;;;;;;3.35;0.73;;;;;;;;;;5108533;28;20107;-65
2021/05/24 14:10:31;;;;;;;3.03;0.80;;;;;;;;;;5109836;28;20044;-66
2021/05/24 14:12:56;;;;;;;2.05;0.70;;;;;;;;;;5108624;28;20024;-65
2021/05/24 14:15:22;;;;;;;2.95;1.10;;;;;;;;;;5094499;28;20024;-65
2021/05/24 14:17:47;;;;;;;1.00;0.80;;;;;;;;;;5102428;28;20015;-66
2021/05/24 14:20:14;;;;;;;1.42;0.88;;;;;;;;;;5085500;28;20114;-65
2021/05/24 14:22:40;;;;;;;1.50;1.00;;;;;;;;;;5085669;28;20112;-65
2021/05/24 14:25:06;;;;;;;2.95;0.85;;;;;;;;;;5101773;28;20043;-65
2021/05/24 14:27:32;;;;;;;2.40;0.80;;;;;;;;;;5087351;28;20047;-65
2021/05/24 14:29:57;;;;;;;2.70;0.68;;;;;;;;;;5081723;28;20399;-64
2021/05/24 14:32:22;;;;;;;3.15;0.90;;;;;;;;;;5081561;28;20032;-65
2021/05/24 14:34:47;;;;;;;3.33;0.75;;;;;;;;;;5085988;28;20085;-66
2021/05/24 14:37:15;;;;;;;1.70;0.70;;;;;;;;;;5089315;28;20024;-65
2021/05/24 14:39:40;;;;;;;1.83;0.70;;;;;;;;;;5101729;28;20581;-65
2021/05/24 14:42:05;;;;;;;3.63;0.70;;;;;;;;;;5103346;28;20032;-65
2021/05/24 14:44:31;;;;;;;1.35;0.55;;;;;;;;;;5093693;28;20016;-65
2021/05/24 14:46:56;;;;;;;2.00;0.40;;;;;;;;;;5097288;28;20373;-66